• Join FlightAware (Why Join?)
  • Login
  • US Flag 
05:10AM EDT


 

Airport Tracker/Info


-or-


 

Live Flight TrackerFlight Track Log ✈ N1655M ✈ 07-May-2013 ✈ KSAW - KLAN

Flight Track Log - Related Links

Times and Time Zones

All times are in EDT time to prevent confusion due to time zone crossing. See the N1655M flight status page for this flight to view local times or setup timezone preferences in your user account.

Time Position Orientation Groundspeed Altitude Reporting Facility
EDT Latitude Longitude Course Direction KTS MPH feet Rate Location/Type
04:42PM 46.3664 -87.3492 133° Southeast 153 176 3,500  Level Minneapolis Center
04:43PM 46.3356 -87.3017 133° Southeast 159 183 5,600 2,040 Climbing Minneapolis Center
04:44PM 46.2947 -87.2703 152° Southeast 164 189 7,800 1,920 Climbing Minneapolis Center
04:45PM 46.2483 -87.2325 151° Southeast 175 201 9,600 1,860 Climbing Minneapolis Center
04:46PM 46.2031 -87.1950 150° Southeast 183 211 11,700 2,040 Climbing Minneapolis Center
04:47PM 46.1592 -87.1597 151° Southeast 176 203 13,900 1,920 Climbing Minneapolis Center
04:48PM 46.1156 -87.1239 150° Southeast 176 203 15,700 1,740 Climbing Minneapolis Center
04:49PM 46.0706 -87.0867 150° Southeast 182 209 17,500 1,560 Climbing Minneapolis Center
04:50PM 46.0278 -87.0514 150° Southeast 180 207 19,000 1,380 Climbing Minneapolis Center
04:52PM 45.9833 -87.0158 151° Southeast 182 209 20,400 1,260 Climbing Minneapolis Center
04:53PM 45.9378 -86.9783 150° Southeast 188 216 21,700 1,140 Climbing Minneapolis Center
04:54PM 45.8828 -86.9358 152° Southeast 188 216 23,000 540 Climbing Minneapolis Center
04:55PM 45.8161 -86.8839 151° Southeast 223 257 23,000  Level Minneapolis Center
04:56PM 45.7539 -86.8331 150° Southeast 251 289 23,000  Level Minneapolis Center
04:57PM 45.6917 -86.7822 150° Southeast 258 297 23,000  Level Minneapolis Center
04:58PM 45.6267 -86.7331 152° Southeast 263 303 23,000  Level Minneapolis Center
04:59PM 45.5628 -86.6794 150° Southeast 265 305 23,000  Level Minneapolis Center
05:00PM 45.4853 -86.6183 151° Southeast 265 305 23,000  Level Minneapolis Center
05:01PM 45.4192 -86.5675 152° Southeast 270 311 23,000  Level Minneapolis Center
05:02PM 45.3547 -86.5175 151° Southeast 267 307 23,000  Level Minneapolis Center
05:03PM 45.2892 -86.4656 151° Southeast 268 308 23,000  Level Minneapolis Center
05:04PM 45.2247 -86.4150 151° Southeast 267 307 23,000  Level Minneapolis Center
05:05PM 45.1561 -86.3583 150° Southeast 273 314 23,000  Level Minneapolis Center
05:06PM 45.0908 -86.3075 151° Southeast 272 313 23,000  Level Minneapolis Center
05:07PM 45.0131 -86.2467 151° Southeast 268 308 23,000  Level Minneapolis Center
05:08PM 44.9469 -86.1967 152° Southeast 268 308 23,000  Level Minneapolis Center
05:09PM 44.8831 -86.1461 151° Southeast 266 306 23,000  Level Minneapolis Center
05:10PM 44.8169 -86.0978 153° Southeast 267 307 23,000  Level Minneapolis Center
05:11PM 44.7514 -86.0464 151° Southeast 269 310 23,000  Level Minneapolis Center
05:12PM 44.6861 -85.9964 151° Southeast 268 308 23,000  Level Minneapolis Center
05:13PM 44.6172 -85.9439 152° Southeast 266 306 23,000  Level Minneapolis Center
05:14PM 44.5394 -85.8847 152° Southeast 265 305 23,000  Level Minneapolis Center
05:16PM 44.4744 -85.8347 151° Southeast 266 306 23,000  Level Minneapolis Center
05:17PM 44.4083 -85.7842 151° Southeast 271 312 23,000  Level Minneapolis Center
05:18PM 44.3433 -85.7350 152° Southeast 268 308 23,000  Level Minneapolis Center
05:19PM 44.2775 -85.6853 152° Southeast 268 308 23,000  Level Minneapolis Center
05:20PM 44.2119 -85.6367 152° Southeast 269 310 23,000  Level Minneapolis Center
05:21PM 44.1331 -85.5772 152° Southeast 269 310 23,000  Level Minneapolis Center
05:22PM 44.0678 -85.5281 152° Southeast 268 308 23,000  Level Minneapolis Center
05:23PM 44.0058 -85.4825 152° Southeast 267 307 23,000  Level Minneapolis Center
05:24PM 43.9417 -85.4344 152° Southeast 264 304 23,000 -540 Level Minneapolis Center
05:25PM 43.8744 -85.3847 152° Southeast 270 311 22,000 -1,320 Descending Minneapolis Center
05:26PM 43.7858 -85.3189 152° Southeast 293 337 20,300 -1,440 Descending Minneapolis Center
05:27PM 43.7117 -85.2636 152° Southeast 301 346 19,000 -660 Descending Minneapolis Center
05:28PM 43.6425 -85.2119 152° Southeast 290 334 19,000 -540 Level Minneapolis Center
05:29PM 43.5492 -85.1439 152° Southeast 275 316 17,800 -1,020 Descending Minneapolis Center
05:31PM 43.4739 -85.0894 152° Southeast 293 337 16,400 -1,380 Descending Minneapolis Center
05:32PM 43.3847 -85.0269 153° Southeast 299 344 14,700 -1,680 Descending Minneapolis Center
05:33PM 43.2947 -84.9839 161° South 288 331 13,000 -1,500 Descending Minneapolis Center
05:33PM 43.2664 -84.9714 162° South 281 323 12,600 -960 Descending Chicago Center
05:34PM 43.2136 -84.9450 160° South 280 322 11,900 -960 Descending Cleveland Center
05:35PM 43.1564 -84.9125 157° South 252 290 11,000 -960 Descending Cleveland Center
05:36PM 43.0975 -84.8686 151° Southeast 236 272 10,000 -960 Descending Cleveland Center
05:36PM 43.0861 -84.8592 149° Southeast 237 273 9,700 -1,380 Descending Chicago Center
05:37PM 43.0261 -84.8111 150° Southeast 250 288 8,100 -1,800 Descending Chicago Center
05:38PM 42.9572 -84.7506 147° Southeast 247 284 6,000 -1,800 Descending Chicago Center
05:39PM 42.9039 -84.7031 147° Southeast 234 269 4,500 -1,500 Descending Chicago Center
05:40PM 42.8542 -84.6672 152° Southeast 219 252 3,000 -840 Descending Chicago Center
05:41PM 42.8061 -84.6364 155° Southeast 215 247 2,800 -240 Descending Chicago Center